Time;durP1;ratioP1;P1;durP2;ratioP2;P2;SDS_P1;SDS_P2;PMS_P1;PMS_P2;Temp;Humidity;BMP_temperature;BMP_pressure;BME280_temperature;BME280_humidity;BME280_pressure;Samples;Min_cycle;Max_cycle;Signal;HPM_P1;HPM_P2
2022/01/21 00:00:41;;;;;;;7.38;1.77;;;0.90;99.90;;;;;;5109535;28;20403;-67
2022/01/21 00:03:07;;;;;;;8.88;1.65;;;0.90;99.90;;;;;;5120340;28;20048;-67
2022/01/21 00:05:33;;;;;;;12.50;2.92;;;0.90;99.90;;;;;;5127453;27;20052;-67
2022/01/21 00:07:59;;;;;;;12.70;2.20;;;0.90;99.90;;;;;;5108924;28;20043;-67
2022/01/21 00:10:25;;;;;;;10.57;2.35;;;0.90;99.90;;;;;;5115848;28;20052;-67
2022/01/21 00:12:53;;;;;;;17.60;2.22;;;0.90;99.90;;;;;;5106724;28;20036;-67
2022/01/21 00:15:19;;;;;;;12.10;1.88;;;0.90;99.90;;;;;;5124966;28;20043;-67
2022/01/21 00:17:45;;;;;;;16.77;2.42;;;0.90;99.90;;;;;;5104653;28;20071;-67
2022/01/21 00:31:24;;;;;;;11.88;2.78;;;0.90;99.90;;;;;;5067395;28;20421;-67
2022/01/21 00:33:50;;;;;;;14.18;2.38;;;0.90;99.90;;;;;;5051596;28;20069;-67
2022/01/21 00:36:16;;;;;;;17.92;3.10;;;1.00;99.90;;;;;;5068515;28;20145;-67
2022/01/21 00:38:43;;;;;;;26.52;3.20;;;1.10;99.90;;;;;;5063490;28;20045;-67
2022/01/21 00:41:10;;;;;;;15.48;3.72;;;1.10;99.90;;;;;;5065591;28;20077;-67
2022/01/21 00:43:44;;;;;;;14.68;2.35;;;1.10;99.90;;;;;;5044734;28;20071;-67
2022/01/21 00:46:11;;;;;;;25.38;4.50;;;1.20;99.90;;;;;;5046048;28;20112;-67
2022/01/21 00:48:37;;;;;;;13.38;2.47;;;1.20;99.90;;;;;;5064957;28;20086;-67
2022/01/21 00:51:03;;;;;;;17.98;2.65;;;1.30;99.90;;;;;;5064590;28;20069;-67
2022/01/21 00:53:28;;;;;;;20.17;3.72;;;1.30;99.90;;;;;;5048373;28;20149;-67
2022/01/21 00:55:54;;;;;;;15.20;2.85;;;1.50;99.90;;;;;;5052277;28;20060;-67
2022/01/21 00:58:20;;;;;;;19.33;2.60;;;1.90;99.90;;;;;;5063952;28;20113;-67
2022/01/21 01:00:45;;;;;;;13.93;3.10;;;2.00;99.90;;;;;;5110282;28;20103;-67
2022/01/21 01:03:13;;;;;;;20.30;2.50;;;2.00;99.90;;;;;;5125951;28;20074;-67
2022/01/21 01:05:39;;;;;;;14.75;1.85;;;2.10;99.90;;;;;;5124344;28;20039;-67
2022/01/21 01:08:05;;;;;;;10.85;1.95;;;2.20;99.90;;;;;;5102829;28;20393;-67
2022/01/21 01:21:36;;;;;;;8.35;1.92;;;2.90;99.90;;;;;;5126534;28;20156;-67
2022/01/21 01:29:17;;;;;;;8.48;1.42;;;2.70;99.90;;;;;;5107542;28;20052;-67
2022/01/21 01:31:43;;;;;;;8.40;1.40;;;2.70;99.90;;;;;;5108024;28;20035;-67
2022/01/21 01:34:09;;;;;;;6.00;1.25;;;2.50;99.90;;;;;;5090942;28;20052;-67
2022/01/21 01:36:34;;;;;;;8.77;1.58;;;2.50;99.90;;;;;;5126105;28;20091;-67
2022/01/21 01:39:33;;;;;;;8.68;1.50;;;2.30;99.90;;;;;;5126112;28;20054;-67
2022/01/21 01:42:27;;;;;;;9.77;2.08;;;2.10;99.90;;;;;;5091397;28;20373;-67
2022/01/21 01:50:41;;;;;;;9.93;1.95;;;2.10;99.90;;;;;;5103457;28;20052;-67
2022/01/21 01:53:08;;;;;;;7.03;1.50;;;2.10;99.90;;;;;;5107659;28;20055;-67
2022/01/21 01:55:35;;;;;;;8.55;1.50;;;2.10;99.90;;;;;;5107703;28;20054;-67
2022/01/21 01:58:01;;;;;;;9.15;1.73;;;2.20;99.90;;;;;;5107780;28;20039;-67
2022/01/21 02:00:27;;;;;;;15.07;2.15;;;2.20;99.90;;;;;;5107398;28;20069;-67
2022/01/21 02:02:53;;;;;;;15.90;3.10;;;2.20;99.90;;;;;;5107496;28;20048;-67
2022/01/21 02:05:18;;;;;;;18.55;2.08;;;2.00;99.90;;;;;;5107500;28;20036;-67
2022/01/21 02:07:45;;;;;;;10.68;2.58;;;2.00;99.90;;;;;;5107433;28;20132;-67
2022/01/21 02:10:12;;;;;;;14.13;1.70;;;1.80;99.90;;;;;;5107168;28;20048;-67
2022/01/21 02:12:41;;;;;;;13.15;2.10;;;1.90;99.90;;;;;;5107276;28;20155;-67
2022/01/21 02:15:07;;;;;;;16.92;2.13;;;1.80;99.90;;;;;;5125171;28;20047;-67
2022/01/21 02:23:02;;;;;;;14.65;1.95;;;1.80;99.90;;;;;;5125599;28;20209;-67
2022/01/21 02:25:28;;;;;;;15.68;3.25;;;1.70;99.90;;;;;;5125549;28;20051;-67
2022/01/21 02:27:57;;;;;;;14.00;2.05;;;1.50;99.90;;;;;;5107191;28;20078;-67
2022/01/21 02:30:24;;;;;;;15.32;1.95;;;1.40;99.90;;;;;;5107029;28;20066;-67
2022/01/21 02:32:53;;;;;;;21.92;2.72;;;1.40;99.90;;;;;;5107010;28;20052;-67
2022/01/21 02:35:20;;;;;;;15.38;2.10;;;1.40;99.90;;;;;;5106868;28;20086;-67
2022/01/21 02:37:47;;;;;;;13.23;2.67;;;1.60;99.90;;;;;;5107085;28;20056;-67
2022/01/21 02:40:15;;;;;;;21.63;3.03;;;1.60;99.90;;;;;;5090070;28;20079;-67
2022/01/21 02:42:41;;;;;;;15.02;2.67;;;1.70;99.90;;;;;;5125279;28;20047;-67
2022/01/21 02:45:09;;;;;;;9.90;2.25;;;1.90;99.90;;;;;;5112985;28;20043;-67
2022/01/21 02:47:34;;;;;;;12.20;1.63;;;2.10;99.90;;;;;;5141349;28;20073;-67
2022/01/21 02:50:00;;;;;;;13.82;2.50;;;2.10;99.90;;;;;;5107273;28;20052;-67
2022/01/21 02:52:29;;;;;;;10.43;2.45;;;2.10;99.90;;;;;;5141426;28;20044;-67
2022/01/21 02:54:55;;;;;;;15.05;3.28;;;1.90;99.90;;;;;;5106746;28;20091;-67
2022/01/21 02:57:21;;;;;;;7.38;1.50;;;2.00;99.90;;;;;;5125272;28;20089;-67
2022/01/21 02:59:49;;;;;;;15.05;2.05;;;1.90;99.90;;;;;;5125138;28;20494;-67
2022/01/21 03:02:15;;;;;;;14.50;2.08;;;1.90;99.90;;;;;;5108249;28;20122;-67
2022/01/21 03:04:58;;;;;;;8.73;1.27;;;1.80;99.90;;;;;;5110807;28;20083;-67
2022/01/21 03:07:24;;;;;;;6.70;1.20;;;1.80;99.90;;;;;;5090828;28;20047;-67
2022/01/21 03:09:50;;;;;;;12.55;1.60;;;1.70;99.90;;;;;;5108577;28;20044;-67
2022/01/21 03:12:16;;;;;;;8.07;1.25;;;1.70;99.90;;;;;;5108435;28;20044;-67
2022/01/21 03:14:41;;;;;;;8.27;1.30;;;1.80;99.90;;;;;;5090582;28;20474;-67
2022/01/21 03:17:07;;;;;;;10.07;1.50;;;1.80;99.90;;;;;;5092987;28;20048;-67
2022/01/21 03:19:33;;;;;;;9.43;1.35;;;1.90;99.90;;;;;;5110773;28;20036;-67
2022/01/21 03:21:58;;;;;;;10.60;1.33;;;1.90;99.90;;;;;;5110398;28;20050;-67
2022/01/21 03:24:25;;;;;;;9.15;1.38;;;1.90;99.90;;;;;;5110451;28;20070;-67
2022/01/21 03:26:50;;;;;;;10.15;1.58;;;1.80;99.90;;;;;;5128660;28;20054;-67
2022/01/21 03:29:16;;;;;;;6.45;1.88;;;1.90;99.90;;;;;;5110245;28;20126;-67
2022/01/21 03:31:42;;;;;;;6.75;1.38;;;1.80;99.90;;;;;;5110077;28;20047;-67
2022/01/21 03:34:07;;;;;;;6.18;1.30;;;1.90;99.90;;;;;;5128597;28;20059;-67
2022/01/21 03:36:33;;;;;;;8.38;1.25;;;1.90;99.90;;;;;;5110230;28;20051;-67
2022/01/21 03:38:59;;;;;;;8.10;1.38;;;2.00;99.90;;;;;;5128454;28;20035;-67
2022/01/21 03:41:25;;;;;;;10.60;1.40;;;1.90;99.90;;;;;;5127874;28;20390;-67
2022/01/21 03:43:51;;;;;;;7.45;1.27;;;1.90;99.90;;;;;;5109046;28;20075;-67
2022/01/21 03:46:16;;;;;;;4.13;1.20;;;2.00;99.90;;;;;;5126731;28;20056;-67
2022/01/21 03:48:47;;;;;;;7.22;1.17;;;2.10;99.90;;;;;;5144305;27;20036;-67
2022/01/21 03:51:13;;;;;;;10.13;1.37;;;2.10;99.90;;;;;;5109917;28;20067;-67
2022/01/21 03:53:39;;;;;;;5.18;2.10;;;2.10;99.90;;;;;;5109584;28;20297;-67
2022/01/21 03:56:04;;;;;;;11.30;1.38;;;2.20;99.90;;;;;;5127901;28;20052;-67
2022/01/21 03:58:30;;;;;;;7.15;1.63;;;2.30;99.90;;;;;;5109407;28;20052;-67
2022/01/21 04:00:56;;;;;;;5.50;1.50;;;2.30;99.90;;;;;;5109964;28;20048;-67
2022/01/21 04:03:24;;;;;;;15.93;3.40;;;2.30;99.90;;;;;;5109574;28;20098;-67
2022/01/21 04:05:50;;;;;;;19.23;2.00;;;2.20;99.90;;;;;;5117172;27;20502;-67
2022/01/21 04:08:16;;;;;;;4.88;1.05;;;2.20;99.90;;;;;;5148472;27;20054;-67
2022/01/21 04:10:42;;;;;;;9.82;1.30;;;2.10;99.90;;;;;;5148474;27;20039;-67
2022/01/21 04:13:15;;;;;;;5.50;1.20;;;2.00;99.90;;;;;;5147984;27;20078;-67
2022/01/21 04:15:49;;;;;;;8.15;1.15;;;1.90;99.90;;;;;;5148306;27;20051;-67
2022/01/21 04:18:16;;;;;;;5.70;1.30;;;1.80;99.90;;;;;;5121693;27;20059;-67
2022/01/21 04:20:44;;;;;;;11.43;1.00;;;1.70;99.90;;;;;;5106175;28;20044;-67
2022/01/21 04:23:11;;;;;;;7.82;1.25;;;1.70;99.90;;;;;;5119306;28;20032;-67
2022/01/21 04:25:37;;;;;;;6.03;1.23;;;1.60;99.90;;;;;;5125301;28;20164;-67
2022/01/21 04:28:03;;;;;;;9.95;2.42;;;1.70;99.90;;;;;;5120732;28;20063;-67
2022/01/21 04:30:29;;;;;;;4.05;1.00;;;1.60;99.90;;;;;;5106600;28;20051;-67
2022/01/21 04:32:55;;;;;;;6.78;1.13;;;1.60;99.90;;;;;;5140080;27;20077;-67
2022/01/21 04:35:20;;;;;;;9.88;1.58;;;1.50;99.90;;;;;;5108237;28;20081;-67
2022/01/21 04:37:54;;;;;;;11.90;1.40;;;1.50;99.90;;;;;;5108127;28;20411;-67
2022/01/21 04:40:22;;;;;;;8.43;1.50;;;1.40;99.90;;;;;;5089770;28;20649;-67
2022/01/21 04:48:17;;;;;;;9.85;2.08;;;1.60;99.90;;;;;;5104331;28;20073;-67
2022/01/21 04:50:54;;;;;;;6.10;1.60;;;1.60;99.90;;;;;;5125039;28;20039;-67
2022/01/21 04:53:21;;;;;;;9.80;1.77;;;1.60;99.90;;;;;;5133584;27;20036;-67
2022/01/21 04:55:47;;;;;;;9.98;1.55;;;1.70;99.90;;;;;;5107834;28;20059;-67
2022/01/21 04:58:13;;;;;;;14.15;1.77;;;1.70;99.90;;;;;;5104829;28;20051;-67
2022/01/21 05:00:39;;;;;;;8.38;1.27;;;1.70;99.90;;;;;;5108265;28;20036;-67
2022/01/21 05:03:05;;;;;;;7.20;1.45;;;1.70;99.90;;;;;;5119906;28;20091;-67
2022/01/21 05:05:31;;;;;;;10.02;1.50;;;1.60;99.90;;;;;;5091394;28;20069;-67
2022/01/21 05:08:01;;;;;;;9.32;1.40;;;1.60;99.90;;;;;;5119982;28;20168;-67
2022/01/21 05:10:27;;;;;;;9.53;1.30;;;1.60;99.90;;;;;;5141772;27;20047;-67
2022/01/21 05:12:54;;;;;;;7.68;1.35;;;1.50;99.90;;;;;;5113678;28;20044;-67
2022/01/21 05:15:28;;;;;;;8.85;1.83;;;1.40;99.90;;;;;;5113031;28;20039;-67
2022/01/21 05:17:53;;;;;;;8.63;1.40;;;1.40;99.90;;;;;;5107572;28;20051;-67
2022/01/21 05:20:19;;;;;;;11.02;1.85;;;1.30;99.90;;;;;;5125777;28;20044;-67
2022/01/21 05:22:46;;;;;;;12.70;2.33;;;1.30;99.90;;;;;;5114810;28;20055;-67
2022/01/21 05:25:17;;;;;;;11.48;1.67;;;1.40;99.90;;;;;;5106902;28;20047;-67
2022/01/21 05:27:47;;;;;;;10.75;1.83;;;1.40;99.90;;;;;;5108566;28;20516;-67
2022/01/21 05:30:15;;;;;;;14.10;2.05;;;1.30;99.90;;;;;;5106576;28;20484;-67
2022/01/21 05:32:41;;;;;;;14.70;1.88;;;1.30;99.90;;;;;;5108952;28;20052;-67
2022/01/21 05:35:08;;;;;;;14.10;1.90;;;1.40;99.90;;;;;;5123806;28;20103;-67
2022/01/21 05:37:35;;;;;;;7.82;1.80;;;1.30;99.90;;;;;;5119666;28;20076;-67
2022/01/21 05:40:01;;;;;;;13.27;1.75;;;1.40;99.90;;;;;;5107346;28;20506;-67
2022/01/21 05:42:27;;;;;;;12.90;1.80;;;1.30;99.90;;;;;;5138125;27;20048;-67
2022/01/21 05:47:21;;;;;;;11.93;2.05;;;1.40;99.90;;;;;;5107641;28;20047;-67
2022/01/21 05:49:47;;;;;;;15.85;1.80;;;1.50;99.90;;;;;;5141491;27;20073;-67
2022/01/21 05:52:17;;;;;;;15.23;1.98;;;1.40;99.90;;;;;;5118548;28;20122;-67
2022/01/21 05:54:45;;;;;;;11.43;1.65;;;1.50;99.90;;;;;;5104462;28;20055;-67
2022/01/21 05:57:13;;;;;;;13.75;2.20;;;1.40;99.90;;;;;;5120637;28;20054;-67
2022/01/21 05:59:39;;;;;;;12.10;1.77;;;1.50;99.90;;;;;;5107352;28;20114;-67
2022/01/21 06:02:06;;;;;;;11.55;1.88;;;1.40;99.90;;;;;;5090059;28;20052;-67
2022/01/21 06:04:33;;;;;;;11.32;1.95;;;1.50;99.90;;;;;;5106735;28;20050;-67
2022/01/21 06:07:02;;;;;;;9.40;1.85;;;1.50;99.90;;;;;;5105139;28;20060;-67
2022/01/21 06:09:28;;;;;;;9.73;1.97;;;1.50;99.90;;;;;;5102786;28;20050;-67
2022/01/21 06:11:54;;;;;;;13.95;2.70;;;1.50;99.90;;;;;;5084927;28;20056;-67
2022/01/21 06:14:19;;;;;;;5.88;1.48;;;1.50;99.90;;;;;;5114608;27;20048;-67
2022/01/21 06:16:45;;;;;;;12.93;1.80;;;1.60;99.90;;;;;;5103737;28;20055;-66
2022/01/21 06:19:11;;;;;;;12.43;1.90;;;1.70;99.90;;;;;;5140012;27;20045;-66
2022/01/21 06:21:37;;;;;;;10.43;1.98;;;1.60;99.90;;;;;;5122451;28;20039;-67
2022/01/21 06:24:03;;;;;;;10.90;1.67;;;1.60;99.90;;;;;;5138177;28;20084;-67
2022/01/21 06:26:29;;;;;;;12.75;1.73;;;1.80;99.90;;;;;;5103616;28;20127;-67
2022/01/21 06:28:54;;;;;;;9.45;1.58;;;1.80;99.90;;;;;;5104013;28;21507;-67
2022/01/21 06:31:21;;;;;;;10.75;1.88;;;1.70;99.90;;;;;;5135680;28;20051;-67
2022/01/21 06:33:47;;;;;;;10.25;1.83;;;1.70;99.90;;;;;;5104405;28;20036;-66
2022/01/21 06:36:13;;;;;;;12.25;1.80;;;1.70;99.90;;;;;;5139853;27;20046;-67
2022/01/21 06:38:38;;;;;;;10.73;2.10;;;1.80;99.90;;;;;;5128139;28;20035;-67
2022/01/21 06:41:04;;;;;;;13.95;2.22;;;1.80;99.90;;;;;;5108135;28;20058;-67
2022/01/21 06:43:30;;;;;;;15.05;1.95;;;1.90;99.90;;;;;;5106431;28;20104;-67
2022/01/21 06:45:56;;;;;;;14.25;1.75;;;2.00;99.90;;;;;;5107217;28;20062;-66
2022/01/21 06:48:22;;;;;;;9.48;1.80;;;2.10;99.90;;;;;;5080795;28;20048;-66
2022/01/21 06:50:48;;;;;;;9.50;2.15;;;2.00;99.90;;;;;;5089438;28;20114;-66
2022/01/21 06:53:13;;;;;;;11.48;1.90;;;2.20;99.90;;;;;;5109064;28;20041;-70
2022/01/21 06:55:39;;;;;;;13.77;2.00;;;2.10;99.90;;;;;;5087895;28;20052;-69
2022/01/21 06:58:05;;;;;;;15.77;1.73;;;2.10;99.90;;;;;;5087390;28;20040;-70
2022/01/21 07:00:31;;;;;;;14.10;1.77;;;2.00;99.90;;;;;;5071927;28;20059;-74
2022/01/21 07:02:58;;;;;;;13.35;1.65;;;2.00;99.90;;;;;;5075312;28;20089;-71
2022/01/21 07:05:25;;;;;;;14.65;2.00;;;1.80;99.90;;;;;;5089215;28;20036;-70
2022/01/21 07:07:51;;;;;;;11.98;1.95;;;1.90;99.90;;;;;;5076371;28;20047;-68
2022/01/21 07:10:17;;;;;;;11.88;2.05;;;1.80;99.90;;;;;;5072679;28;20044;-68
2022/01/21 07:12:44;;;;;;;12.90;1.70;;;1.80;99.90;;;;;;5059617;28;20105;-68
2022/01/21 07:15:15;;;;;;;13.90;1.63;;;1.80;99.90;;;;;;5054259;28;20076;-68
2022/01/21 07:17:42;;;;;;;11.63;1.92;;;1.80;99.90;;;;;;5078892;28;20491;-68
2022/01/21 07:20:09;;;;;;;15.38;2.10;;;1.80;99.90;;;;;;5065172;28;20356;-68
2022/01/21 07:22:34;;;;;;;12.23;1.70;;;1.70;99.90;;;;;;5081512;28;20056;-68
2022/01/21 07:25:00;;;;;;;7.70;1.50;;;1.60;99.90;;;;;;5071564;28;20051;-68
2022/01/21 07:27:26;;;;;;;12.55;1.50;;;1.50;99.90;;;;;;5081306;28;20044;-66
2022/01/21 07:29:52;;;;;;;14.07;2.45;;;1.50;99.90;;;;;;5062719;28;20095;-64
2022/01/21 07:32:17;;;;;;;14.13;1.60;;;1.50;99.90;;;;;;5099249;28;20043;-65
2022/01/21 07:34:43;;;;;;;13.90;1.90;;;1.60;99.90;;;;;;5087521;28;20598;-65
2022/01/21 07:37:09;;;;;;;16.50;2.00;;;1.40;99.90;;;;;;5087802;28;20040;-65
2022/01/21 07:39:34;;;;;;;14.25;1.88;;;1.40;99.90;;;;;;5072357;28;20056;-64
2022/01/21 07:42:00;;;;;;;11.57;1.65;;;1.40;99.90;;;;;;5077444;28;20052;-66
2022/01/21 07:44:26;;;;;;;10.75;1.92;;;1.50;99.90;;;;;;5069505;28;20048;-65
2022/01/21 07:46:52;;;;;;;12.45;2.45;;;1.40;99.90;;;;;;5062338;28;20066;-65
2022/01/21 07:49:18;;;;;;;12.38;1.92;;;1.50;99.90;;;;;;5126858;27;20040;-65
2022/01/21 07:51:44;;;;;;;15.40;2.08;;;1.40;99.90;;;;;;5122029;27;20104;-65
2022/01/21 07:54:11;;;;;;;9.50;2.25;;;1.60;99.90;;;;;;5114531;27;20042;-65
2022/01/21 07:56:37;;;;;;;14.90;2.30;;;1.60;99.90;;;;;;5127709;27;20111;-65
2022/01/21 07:59:06;;;;;;;12.02;2.03;;;1.60;99.90;;;;;;5110952;27;20043;-65
2022/01/21 08:01:31;;;;;;;17.15;2.38;;;1.60;99.90;;;;;;5118071;28;20059;-65
2022/01/21 08:03:57;;;;;;;9.88;1.65;;;1.60;99.90;;;;;;5102870;27;20051;-65
2022/01/21 08:06:23;;;;;;;14.57;2.35;;;1.50;99.90;;;;;;5140899;27;20420;-64
2022/01/21 08:08:49;;;;;;;13.57;2.10;;;1.40;99.90;;;;;;5113691;27;20562;-65
2022/01/21 08:11:15;;;;;;;16.38;3.03;;;1.50;99.90;;;;;;5118659;28;20111;-65
2022/01/21 08:13:42;;;;;;;20.27;3.13;;;1.40;99.90;;;;;;5099106;27;20134;-65
2022/01/21 08:16:08;;;;;;;10.60;1.70;;;1.40;99.90;;;;;;5134230;27;20049;-63
2022/01/21 08:18:35;;;;;;;5.72;2.17;;;1.40;99.90;;;;;;5094379;27;20055;-63
2022/01/21 08:21:01;;;;;;;11.63;2.15;;;1.40;99.90;;;;;;5129618;27;20095;-63
2022/01/21 08:23:26;;;;;;;11.68;1.73;;;1.40;99.90;;;;;;5102545;27;20093;-64
2022/01/21 08:25:52;;;;;;;10.32;1.58;;;1.60;99.90;;;;;;5148462;27;20122;-63
2022/01/21 08:28:18;;;;;;;12.63;2.30;;;1.50;99.90;;;;;;5153639;27;20103;-63
2022/01/21 08:30:44;;;;;;;16.13;2.75;;;1.50;99.90;;;;;;5144828;27;20050;-63
2022/01/21 08:33:09;;;;;;;13.90;2.00;;;1.70;99.90;;;;;;5118070;28;20044;-63
2022/01/21 08:35:36;;;;;;;9.57;1.85;;;1.70;99.90;;;;;;5130403;27;20122;-63
2022/01/21 08:38:03;;;;;;;11.57;1.75;;;1.70;99.90;;;;;;5117394;28;20042;-63
2022/01/21 08:40:29;;;;;;;13.02;1.80;;;1.80;99.90;;;;;;5144206;27;20047;-65
2022/01/21 08:42:55;;;;;;;10.85;2.55;;;1.70;99.90;;;;;;5118520;28;20039;-65
2022/01/21 08:45:21;;;;;;;12.55;3.45;;;1.80;99.90;;;;;;5141146;27;20131;-65
2022/01/21 08:47:48;;;;;;;15.48;3.83;;;2.00;99.90;;;;;;5120361;27;20514;-65
2022/01/21 08:50:18;;;;;;;14.75;3.80;;;2.20;99.90;;;;;;5141706;27;20112;-65
2022/01/21 08:52:44;;;;;;;16.85;4.50;;;2.20;99.90;;;;;;5151039;27;20036;-64
2022/01/21 08:55:13;;;;;;;11.18;3.40;;;2.20;99.90;;;;;;5135290;27;20050;-66
2022/01/21 08:57:41;;;;;;;18.13;3.72;;;2.30;99.90;;;;;;5097068;28;20063;-62
2022/01/21 09:00:17;;;;;;;14.20;3.65;;;2.40;99.90;;;;;;5123285;27;20046;-62
2022/01/21 09:02:43;;;;;;;18.92;3.55;;;2.50;99.90;;;;;;5123697;27;20063;-63
2022/01/21 09:05:09;;;;;;;9.77;2.97;;;2.60;99.90;;;;;;5127442;27;20046;-63
2022/01/21 09:07:35;;;;;;;20.27;4.13;;;2.60;99.90;;;;;;5113325;27;20074;-62
2022/01/21 09:10:02;;;;;;;16.05;3.00;;;2.60;99.90;;;;;;5123466;27;20514;-62
2022/01/21 09:12:28;;;;;;;16.48;3.22;;;2.80;99.90;;;;;;5115523;27;20055;-63
2022/01/21 09:14:54;;;;;;;15.88;3.20;;;2.80;99.90;;;;;;5120673;27;20330;-62
2022/01/21 09:17:19;;;;;;;13.35;3.65;;;2.90;99.90;;;;;;5127211;27;20036;-63
2022/01/21 09:19:45;;;;;;;19.05;4.00;;;2.90;99.90;;;;;;5118744;27;20142;-63
2022/01/21 09:22:11;;;;;;;15.00;3.08;;;2.90;99.90;;;;;;5129774;27;20063;-64
2022/01/21 09:24:37;;;;;;;16.63;2.88;;;3.00;99.90;;;;;;5124340;27;20126;-63
2022/01/21 09:27:04;;;;;;;15.05;4.03;;;3.00;99.90;;;;;;5131485;27;20050;-64
2022/01/21 09:29:30;;;;;;;20.85;3.40;;;3.00;99.90;;;;;;5125836;27;20067;-63
2022/01/21 09:31:56;;;;;;;12.90;2.90;;;3.00;99.90;;;;;;5114902;28;20075;-62
2022/01/21 09:34:24;;;;;;;14.88;4.03;;;3.00;99.90;;;;;;5141460;27;20043;-62
2022/01/21 09:36:51;;;;;;;17.77;5.13;;;3.10;99.90;;;;;;5112696;28;20075;-63
2022/01/21 09:39:18;;;;;;;17.42;3.50;;;3.10;99.90;;;;;;5115529;27;20078;-63
2022/01/21 09:41:45;;;;;;;14.13;3.22;;;3.10;99.90;;;;;;5127362;27;20051;-62
2022/01/21 09:44:15;;;;;;;11.52;3.53;;;3.20;99.90;;;;;;5112826;27;20053;-63
2022/01/21 09:46:44;;;;;;;8.82;2.97;;;3.20;99.90;;;;;;5115469;27;20119;-62
2022/01/21 09:52:03;;;;;;;14.50;2.45;;;3.10;99.90;;;;;;5113671;28;20113;-62
2022/01/21 09:54:33;;;;;;;18.88;3.15;;;3.20;99.90;;;;;;5118956;27;20799;-62
2022/01/21 09:57:00;;;;;;;14.10;2.67;;;3.20;99.90;;;;;;5116642;27;20073;-63
2022/01/21 09:59:28;;;;;;;16.30;2.60;;;3.30;99.90;;;;;;5113035;27;20129;-63
2022/01/21 10:02:00;;;;;;;13.18;2.83;;;3.30;99.90;;;;;;5124702;27;20096;-62
2022/01/21 10:04:29;;;;;;;14.48;3.05;;;3.30;99.90;;;;;;5113187;27;20043;-63
2022/01/21 10:06:55;;;;;;;17.25;3.38;;;3.30;99.90;;;;;;5125274;27;20043;-63
2022/01/21 10:09:23;;;;;;;18.77;2.58;;;3.30;99.90;;;;;;5104283;27;20050;-62
2022/01/21 10:11:50;;;;;;;17.35;2.60;;;3.40;99.90;;;;;;5124981;27;20043;-63
2022/01/21 10:14:21;;;;;;;19.95;2.90;;;3.50;99.90;;;;;;5094514;27;20046;-62
2022/01/21 10:16:48;;;;;;;19.50;2.78;;;3.50;99.90;;;;;;5125122;27;20043;-63
2022/01/21 10:19:22;;;;;;;10.90;3.08;;;3.50;99.90;;;;;;5142637;27;20050;-62
2022/01/21 10:21:57;;;;;;;23.70;3.53;;;3.60;99.90;;;;;;5149606;27;20202;-62
2022/01/21 10:24:23;;;;;;;16.15;3.38;;;3.70;99.90;;;;;;5114075;27;20158;-60
2022/01/21 10:26:54;;;;;;;18.38;3.22;;;3.70;99.90;;;;;;5140497;27;20451;-60
2022/01/21 10:29:21;;;;;;;13.85;2.75;;;3.80;99.90;;;;;;5115258;27;20107;-60
2022/01/21 10:31:57;;;;;;;19.10;3.70;;;3.90;99.90;;;;;;5115600;28;20044;-60
2022/01/21 10:34:41;;;;;;;16.08;2.50;;;3.90;99.90;;;;;;5110848;27;20039;-62
2022/01/21 10:37:34;;;;;;;14.02;2.47;;;3.90;99.90;;;;;;5121532;28;20044;-62
2022/01/21 10:40:02;;;;;;;21.48;2.42;;;3.90;99.90;;;;;;5130040;27;20036;-62
2022/01/21 10:42:28;;;;;;;14.38;2.78;;;4.00;99.90;;;;;;5136513;27;20047;-64
2022/01/21 10:44:55;;;;;;;12.80;2.50;;;4.10;99.90;;;;;;5096967;28;20078;-63
2022/01/21 10:47:27;;;;;;;17.83;2.83;;;4.10;99.90;;;;;;5121157;28;20543;-63
2022/01/21 10:50:00;;;;;;;18.25;2.90;;;4.20;99.90;;;;;;5123340;28;20047;-63
2022/01/21 10:52:53;;;;;;;13.45;2.58;;;4.20;99.90;;;;;;5117581;28;20059;-62
2022/01/21 10:55:34;;;;;;;14.15;2.20;;;4.30;99.90;;;;;;5099855;28;20074;-62
2022/01/21 10:58:07;;;;;;;10.73;1.90;;;4.40;99.90;;;;;;5099961;28;20047;-64
2022/01/21 11:00:35;;;;;;;14.77;2.08;;;4.40;99.90;;;;;;5083914;28;20056;-64
2022/01/21 11:03:13;;;;;;;13.30;3.08;;;4.40;99.90;;;;;;5097925;28;20554;-63
2022/01/21 11:05:44;;;;;;;13.00;2.13;;;4.40;99.90;;;;;;5101178;28;20035;-64
2022/01/21 11:08:11;;;;;;;;;;;4.50;99.90;;;;;;5098243;28;20333;-62
2022/01/21 11:10:46;;;;;;;14.43;2.20;;;4.50;99.90;;;;;;5099996;28;19927;-62
2022/01/21 11:13:11;;;;;;;14.73;3.40;;;4.60;99.90;;;;;;5105687;28;20470;-63
2022/01/21 11:15:39;;;;;;;11.27;1.77;;;4.70;99.90;;;;;;5092723;28;20450;-62
2022/01/21 11:18:08;;;;;;;17.17;2.70;;;4.60;99.90;;;;;;5100560;28;20057;-62
2022/01/21 11:20:37;;;;;;;13.40;2.50;;;4.60;99.90;;;;;;5122778;28;20105;-64
2022/01/21 11:23:05;;;;;;;13.83;2.17;;;4.60;99.90;;;;;;5099949;28;20036;-64
2022/01/21 11:26:01;;;;;;;22.58;2.47;;;4.70;99.90;;;;;;5116121;27;20051;-64
2022/01/21 11:28:45;;;;;;;16.23;2.40;;;4.70;99.90;;;;;;5036323;28;20052;-63
2022/01/21 11:31:12;;;;;;;16.83;3.08;;;4.70;99.90;;;;;;5041185;28;20056;-63
2022/01/21 11:33:38;;;;;;;20.40;2.97;;;4.70;99.90;;;;;;5051985;28;20119;-63
2022/01/21 11:36:05;;;;;;;15.73;3.83;;;4.90;99.90;;;;;;5025722;28;20304;-63
2022/01/21 11:38:37;;;;;;;14.15;2.78;;;5.00;99.90;;;;;;5051223;28;20111;-62
2022/01/21 11:41:04;;;;;;;15.32;2.92;;;5.10;99.90;;;;;;5041816;28;20055;-64
2022/01/21 11:43:31;;;;;;;22.27;2.85;;;5.10;99.90;;;;;;5051049;28;20160;-63
2022/01/21 11:51:19;;;;;;;25.95;3.63;;;5.40;99.90;;;;;;5040689;28;20099;-64
2022/01/21 11:53:53;;;;;;;;;;;5.50;99.90;;;;;;5022393;28;20136;-64
2022/01/21 11:56:48;;;;;;;15.85;2.60;;;5.50;99.90;;;;;;5041775;28;20027;-63
2022/01/21 11:59:33;;;;;;;13.15;2.83;;;5.60;99.90;;;;;;5010979;28;20092;-63
2022/01/21 12:02:14;;;;;;;13.98;2.50;;;5.70;99.90;;;;;;5034217;28;20740;-62
2022/01/21 12:04:46;;;;;;;13.40;3.13;;;5.80;99.90;;;;;;5076466;27;20287;-62
2022/01/21 12:07:40;;;;;;;14.43;2.60;;;5.70;99.90;;;;;;5102343;28;20050;-62
2022/01/21 12:10:19;;;;;;;11.98;2.63;;;5.70;99.90;;;;;;5099310;27;20035;-62
2022/01/21 12:18:33;;;;;;;18.27;3.40;;;5.70;99.90;;;;;;5106594;28;20576;-62
2022/01/21 12:21:05;;;;;;;18.25;2.97;;;5.80;99.90;;;;;;5099176;27;20562;-62
2022/01/21 12:23:44;;;;;;;18.25;3.47;;;5.80;99.90;;;;;;5111530;27;20127;-62
2022/01/21 12:26:23;;;;;;;18.67;3.27;;;5.80;99.90;;;;;;5126912;27;20648;-62
2022/01/21 12:28:52;;;;;;;19.92;3.58;;;5.90;99.90;;;;;;5107024;28;20282;-62
2022/01/21 12:31:20;;;;;;;18.58;2.92;;;6.00;99.90;;;;;;5123273;27;20059;-62
2022/01/21 12:34:13;;;;;;;16.70;3.55;;;6.10;99.90;;;;;;5111537;28;20085;-62
2022/01/21 12:36:47;;;;;;;15.63;2.65;;;6.10;99.90;;;;;;5103755;27;20051;-62
2022/01/21 12:39:49;;;;;;;17.83;2.83;;;6.20;99.90;;;;;;5111984;28;20048;-66
2022/01/21 12:42:20;;;;;;;17.60;3.63;;;6.20;99.90;;;;;;5068662;28;20050;-62
2022/01/21 12:44:52;;;;;;;13.13;3.15;;;6.30;99.90;;;;;;5092103;27;20111;-62
2022/01/21 12:47:28;;;;;;;16.60;2.72;;;6.40;99.90;;;;;;5103287;28;20051;-63
2022/01/21 12:49:56;;;;;;;13.77;2.50;;;6.50;99.90;;;;;;5092104;27;20039;-62
2022/01/21 12:58:14;;;;;;;11.65;2.75;;;6.50;99.90;;;;;;5095841;28;20410;-62
2022/01/21 13:00:41;;;;;;;13.95;2.30;;;6.50;99.90;;;;;;5100944;27;20046;-62
2022/01/21 13:03:33;;;;;;;9.88;2.03;;;6.50;99.90;;;;;;5106740;28;20052;-63
2022/01/21 13:06:05;;;;;;;11.40;1.92;;;6.60;99.90;;;;;;5088666;28;20058;-61
2022/01/21 13:08:56;;;;;;;15.85;2.10;;;6.60;99.90;;;;;;5099458;28;20075;-61
2022/01/21 13:11:24;;;;;;;9.70;1.73;;;6.60;99.90;;;;;;5120510;27;20065;-62
2022/01/21 13:17:15;;;;;;;12.65;2.17;;;6.60;99.90;;;;;;5066639;28;20247;-62
2022/01/21 13:19:44;;;;;;;6.88;1.40;;;6.60;99.90;;;;;;5085192;28;20487;-62
2022/01/21 13:22:29;;;;;;;9.82;1.95;;;6.60;99.90;;;;;;5088422;28;20047;-62
2022/01/21 13:25:13;;;;;;;14.93;1.95;;;6.70;99.90;;;;;;5045260;28;20048;-62
2022/01/21 13:27:47;;;;;;;10.23;1.80;;;6.70;99.90;;;;;;5066522;28;20056;-62
2022/01/21 13:30:16;;;;;;;12.85;2.35;;;6.60;99.90;;;;;;5077795;28;20189;-62
2022/01/21 13:32:43;;;;;;;12.88;2.08;;;6.70;99.90;;;;;;5044078;28;20088;-62
2022/01/21 13:35:13;;;;;;;11.23;2.30;;;6.70;99.90;;;;;;5063905;28;20366;-62
2022/01/21 13:37:40;;;;;;;16.90;2.08;;;6.70;99.90;;;;;;5061091;28;20060;-62
2022/01/21 13:40:09;;;;;;;14.63;2.75;;;6.70;99.90;;;;;;5067103;28;20059;-62
2022/01/21 13:42:36;;;;;;;13.48;1.95;;;6.80;99.90;;;;;;5075813;28;20048;-62
2022/01/21 13:45:08;;;;;;;15.00;2.30;;;6.70;99.90;;;;;;5047357;28;20071;-62
2022/01/21 13:47:45;;;;;;;11.07;1.60;;;6.70;99.90;;;;;;5069906;28;20229;-62
2022/01/21 13:50:13;;;;;;;15.52;1.77;;;6.70;99.90;;;;;;5067661;28;20115;-62
2022/01/21 13:52:48;;;;;;;9.20;2.38;;;6.80;99.90;;;;;;5114257;28;20066;-61
2022/01/21 13:55:41;;;;;;;14.60;1.92;;;6.80;99.90;;;;;;5087124;28;20053;-63
2022/01/21 13:58:28;;;;;;;11.48;2.00;;;6.70;99.90;;;;;;5130005;27;20039;-61
2022/01/21 14:00:56;;;;;;;10.95;2.47;;;6.80;99.90;;;;;;5115769;27;20404;-61
2022/01/21 14:03:28;;;;;;;12.10;2.00;;;6.80;99.90;;;;;;5103933;28;20050;-61
2022/01/21 14:05:58;;;;;;;15.45;2.55;;;6.70;99.90;;;;;;5096598;27;20050;-61
2022/01/21 14:08:25;;;;;;;;;;;6.70;99.90;;;;;;5101416;28;20119;-61